createdAt,value
2023-03-18T00:01:06.205Z,10.68
2023-03-18T00:03:40.389Z,11.10
2023-03-18T00:06:12.410Z,10.02
2023-03-18T00:08:43.187Z,11.27
2023-03-18T00:11:15.166Z,10.27
2023-03-18T00:13:45.563Z,11.60
2023-03-18T00:16:16.148Z,11.55
2023-03-18T00:18:47.979Z,12.68
2023-03-18T00:21:17.670Z,11.57
2023-03-18T00:23:51.003Z,12.48
2023-03-18T00:26:22.727Z,12.18
2023-03-18T00:28:52.623Z,11.93
2023-03-18T00:31:22.176Z,12.27
2023-03-18T00:33:54.240Z,13.35
2023-03-18T00:36:26.792Z,11.20
2023-03-18T00:39:03.726Z,11.88
2023-03-18T00:41:37.293Z,12.02
2023-03-18T00:44:08.935Z,11.95
2023-03-18T00:46:38.827Z,12.05
2023-03-18T00:49:11.634Z,12.68
2023-03-18T00:51:42.538Z,13.75
2023-03-18T00:54:14.084Z,12.88
2023-03-18T00:56:44.180Z,13.88
2023-03-18T00:59:14.525Z,14.80
2023-03-18T01:01:47.187Z,15.52
2023-03-18T01:04:19.091Z,16.17
2023-03-18T01:06:50.130Z,17.27
2023-03-18T01:09:24.271Z,15.70
2023-03-18T01:11:56.127Z,16.10
2023-03-18T01:14:25.500Z,17.73
2023-03-18T01:16:56.951Z,15.27
2023-03-18T01:19:27.179Z,16.02
2023-03-18T01:21:56.881Z,16.38
2023-03-18T01:24:27.727Z,17.52
2023-03-18T01:27:02.611Z,17.40
2023-03-18T01:29:41.124Z,17.92
2023-03-18T01:32:17.603Z,18.05
2023-03-18T01:34:51.344Z,19.17
2023-03-18T01:40:04.284Z,17.33
2023-03-18T01:42:34.740Z,17.98
2023-03-18T01:45:29.386Z,17.88
2023-03-18T01:48:04.222Z,18.17
2023-03-18T01:53:15.825Z,18.38
2023-03-18T01:55:47.892Z,19.20
2023-03-18T01:58:34.661Z,17.63
2023-03-18T02:01:13.549Z,17.65
2023-03-18T02:03:43.429Z,15.75
2023-03-18T02:06:14.182Z,16.20
2023-03-18T02:08:45.204Z,15.80
2023-03-18T02:11:15.381Z,16.15
2023-03-18T02:13:47.220Z,16.88
2023-03-18T02:16:31.770Z,17.58
2023-03-18T02:19:11.955Z,16.75
2023-03-18T02:22:26.114Z,15.90
2023-03-18T02:25:15.918Z,15.55
2023-03-18T02:28:08.900Z,15.27
2023-03-18T02:30:47.038Z,15.48
2023-03-18T02:33:19.789Z,16.45
2023-03-18T02:35:55.252Z,15.65
2023-03-18T02:38:25.211Z,15.98
2023-03-18T02:40:56.243Z,16.73
2023-03-18T02:43:34.840Z,17.23
2023-03-18T02:46:33.533Z,17.30
2023-03-18T02:49:05.596Z,17.10
2023-03-18T02:51:41.408Z,15.25
2023-03-18T02:54:15.490Z,17.38
2023-03-18T02:56:45.649Z,17.45
2023-03-18T02:59:16.037Z,18.48
2023-03-18T03:01:49.555Z,17.67
2023-03-18T03:04:21.062Z,17.67
2023-03-18T03:06:51.598Z,19.58
2023-03-18T03:09:27.853Z,18.10
2023-03-18T03:11:59.663Z,16.95
2023-03-18T03:14:30.353Z,17.15
2023-03-18T03:17:03.060Z,18.05
2023-03-18T03:19:32.306Z,18.10
2023-03-18T03:22:02.234Z,18.02
2023-03-18T03:24:32.388Z,18.60
2023-03-18T03:27:07.531Z,17.75
2023-03-18T03:29:37.136Z,18.08
2023-03-18T03:32:07.329Z,17.40
2023-03-18T03:34:39.131Z,17.92
2023-03-18T03:37:09.419Z,18.20
2023-03-18T03:39:41.490Z,18.02
2023-03-18T03:42:11.722Z,16.52
2023-03-18T03:44:41.455Z,19.85
2023-03-18T03:47:11.758Z,17.33
2023-03-18T03:49:42.028Z,19.42
2023-03-18T03:52:11.698Z,17.80
2023-03-18T03:54:42.604Z,18.50
2023-03-18T03:57:12.514Z,19.00
2023-03-18T03:59:41.869Z,18.20
2023-03-18T04:02:20.872Z,16.92
2023-03-18T04:07:27.521Z,17.35
2023-03-18T04:09:57.483Z,20.60
2023-03-18T04:12:27.521Z,18.08
2023-03-18T04:15:01.770Z,18.75
2023-03-18T04:17:31.693Z,19.33
2023-03-18T04:20:01.992Z,19.60
2023-03-18T04:22:34.593Z,18.33
2023-03-18T04:25:10.961Z,16.58
2023-03-18T04:27:44.488Z,18.00
2023-03-18T04:30:16.583Z,18.08
2023-03-18T04:33:03.749Z,18.55
2023-03-18T04:35:34.746Z,19.58
2023-03-18T04:38:09.916Z,16.75
2023-03-18T04:40:43.409Z,16.98
2023-03-18T04:43:15.820Z,17.52
2023-03-18T04:45:45.590Z,16.55
2023-03-18T04:48:19.441Z,16.83
2023-03-18T04:50:55.261Z,18.05
2023-03-18T04:53:28.771Z,17.80
2023-03-18T04:55:59.114Z,17.20
2023-03-18T04:58:37.454Z,18.35
2023-03-18T05:01:13.645Z,17.45
2023-03-18T05:03:43.969Z,17.15
2023-03-18T05:06:27.392Z,17.15
2023-03-18T05:09:05.045Z,17.33
2023-03-18T05:11:36.503Z,18.00
2023-03-18T05:14:29.399Z,16.05
2023-03-18T05:16:59.663Z,17.33
2023-03-18T05:19:30.240Z,16.55
2023-03-18T05:22:15.882Z,16.63
2023-03-18T05:24:50.224Z,17.45
2023-03-18T05:27:21.069Z,15.90
2023-03-18T05:30:00.608Z,18.25
2023-03-18T05:32:43.548Z,16.02
2023-03-18T05:35:14.147Z,17.45
2023-03-18T05:37:50.916Z,16.67
2023-03-18T05:40:20.885Z,16.33
2023-03-18T05:43:06.617Z,15.85
2023-03-18T05:45:52.981Z,16.70
2023-03-18T05:48:28.681Z,16.67
2023-03-18T05:51:02.115Z,16.45
2023-03-18T05:53:36.768Z,15.60
2023-03-18T05:56:27.262Z,16.77
2023-03-18T05:59:01.238Z,15.07
2023-03-18T06:01:40.452Z,15.38
2023-03-18T06:04:11.215Z,15.00
2023-03-18T06:06:41.500Z,13.95
2023-03-18T06:09:13.460Z,14.10
2023-03-18T06:11:46.089Z,14.10
2023-03-18T06:14:16.087Z,14.50
2023-03-18T06:16:46.009Z,13.60
2023-03-18T06:19:15.583Z,14.75
2023-03-18T06:21:45.254Z,13.68
2023-03-18T06:24:17.453Z,14.98
2023-03-18T06:26:53.261Z,16.02
2023-03-18T06:29:23.083Z,14.45
2023-03-18T06:31:53.044Z,15.60
2023-03-18T06:34:27.534Z,15.80
2023-03-18T06:37:00.341Z,15.48
2023-03-18T06:39:30.611Z,13.88
2023-03-18T06:42:06.529Z,13.98
2023-03-18T06:44:59.242Z,13.60
2023-03-18T06:47:41.766Z,15.57
2023-03-18T06:50:14.041Z,14.10
2023-03-18T06:52:44.213Z,16.02
2023-03-18T06:55:18.436Z,14.93
2023-03-18T06:57:49.064Z,14.10
2023-03-18T07:00:23.481Z,14.65
2023-03-18T07:02:53.927Z,14.10
2023-03-18T07:05:29.221Z,13.63
2023-03-18T07:08:00.442Z,13.60
2023-03-18T07:10:32.616Z,14.13
2023-03-18T07:13:13.897Z,12.95
2023-03-18T07:15:44.367Z,12.25
2023-03-18T07:18:14.684Z,13.27
2023-03-18T07:20:47.046Z,11.75
2023-03-18T07:23:17.494Z,13.52
2023-03-18T07:25:47.659Z,12.82
2023-03-18T07:28:17.153Z,14.07
2023-03-18T07:30:48.410Z,12.38
2023-03-18T07:33:19.263Z,12.40
2023-03-18T07:35:49.030Z,12.82
2023-03-18T07:38:19.431Z,12.07
2023-03-18T07:40:49.086Z,14.98
2023-03-18T07:43:19.310Z,13.00
2023-03-18T07:45:51.852Z,13.93
2023-03-18T07:48:23.805Z,13.70
2023-03-18T07:50:53.613Z,13.80
2023-03-18T07:53:25.942Z,14.43
2023-03-18T07:55:56.607Z,13.98
2023-03-18T07:58:26.339Z,15.63
2023-03-18T08:01:00.728Z,13.07
2023-03-18T08:03:30.585Z,12.80
2023-03-18T08:06:00.988Z,13.52
2023-03-18T08:08:30.953Z,14.50
2023-03-18T08:11:04.171Z,12.27
2023-03-18T08:13:36.488Z,14.10
2023-03-18T08:16:07.280Z,13.38
2023-03-18T08:18:37.238Z,13.90
2023-03-18T08:21:08.512Z,13.57
2023-03-18T08:23:39.217Z,12.48
2023-03-18T08:26:08.962Z,13.88
2023-03-18T08:31:11.768Z,12.80
2023-03-18T08:33:42.017Z,12.45
2023-03-18T08:36:12.601Z,15.73
2023-03-18T08:38:42.037Z,13.63
2023-03-18T08:41:11.605Z,13.38
2023-03-18T08:43:41.209Z,14.20
2023-03-18T08:46:11.154Z,15.10
2023-03-18T08:48:42.264Z,13.85
2023-03-18T08:51:16.688Z,12.25
2023-03-18T08:53:46.395Z,14.02
2023-03-18T08:56:18.609Z,13.25
2023-03-18T08:58:48.760Z,12.77
2023-03-18T09:01:40.890Z,13.70
2023-03-18T09:04:13.831Z,13.13
2023-03-18T09:06:46.469Z,15.15
2023-03-18T09:09:19.029Z,12.95
2023-03-18T09:11:49.128Z,14.02
2023-03-18T09:14:22.125Z,13.10
2023-03-18T09:16:55.762Z,13.02
2023-03-18T09:19:28.882Z,13.57
2023-03-18T09:21:58.172Z,13.68
2023-03-18T09:24:27.719Z,13.60
2023-03-18T09:26:57.331Z,13.88
2023-03-18T09:29:28.151Z,12.32
2023-03-18T09:31:57.650Z,13.18
2023-03-18T09:34:27.826Z,12.20
2023-03-18T09:36:59.796Z,12.98
2023-03-18T09:39:30.121Z,12.73
2023-03-18T09:42:24.344Z,13.35
2023-03-18T09:45:10.734Z,12.65
2023-03-18T09:48:02.360Z,13.13
2023-03-18T09:53:23.028Z,11.50
2023-03-18T09:56:01.288Z,13.10
2023-03-18T09:59:01.578Z,13.63
2023-03-18T10:01:35.306Z,13.55
2023-03-18T10:04:22.635Z,12.07
2023-03-18T10:07:02.404Z,11.90
2023-03-18T10:09:46.526Z,13.25
2023-03-18T10:12:25.613Z,12.55
2023-03-18T10:15:13.801Z,13.52
2023-03-18T10:17:59.584Z,13.30
2023-03-18T10:20:56.715Z,12.10
2023-03-18T10:23:45.853Z,12.55
2023-03-18T10:26:23.126Z,11.98
2023-03-18T10:29:09.175Z,11.63
2023-03-18T10:31:50.833Z,11.02
2023-03-18T10:34:23.952Z,12.38
2023-03-18T10:37:32.300Z,10.52
2023-03-18T10:40:02.551Z,10.50
2023-03-18T10:42:38.399Z,12.50
2023-03-18T10:45:17.793Z,10.95
2023-03-18T10:47:59.880Z,10.77
2023-03-18T10:50:49.234Z,10.80
2023-03-18T10:53:30.533Z,9.85
2023-03-18T10:56:17.136Z,10.48
2023-03-18T10:58:50.519Z,10.50
2023-03-18T11:01:25.814Z,10.30
2023-03-18T11:04:07.096Z,10.50
2023-03-18T11:06:44.064Z,9.98
2023-03-18T11:09:18.616Z,8.82
2023-03-18T11:11:57.561Z,10.27
2023-03-18T11:14:32.254Z,10.45
2023-03-18T11:17:18.614Z,10.32
2023-03-18T11:19:51.732Z,10.43
2023-03-18T11:22:26.710Z,9.18
2023-03-18T11:25:06.563Z,8.93
2023-03-18T11:27:40.864Z,10.50
2023-03-18T11:30:33.930Z,9.70
2023-03-18T11:33:16.408Z,9.57
2023-03-18T11:35:53.782Z,10.82
2023-03-18T11:38:30.024Z,10.10
2023-03-18T11:41:17.415Z,11.95
2023-03-18T11:44:11.600Z,11.02
2023-03-18T11:47:06.857Z,10.20
2023-03-18T11:49:37.486Z,11.32
2023-03-18T11:52:34.880Z,11.80
2023-03-18T11:55:37.057Z,13.40
2023-03-18T11:58:41.621Z,13.00
2023-03-18T12:01:41.509Z,11.93
2023-03-18T12:04:34.891Z,12.52
2023-03-18T12:07:13.545Z,15.48
2023-03-18T12:10:00.953Z,13.68
2023-03-18T12:13:02.635Z,24.23
2023-03-18T12:15:35.020Z,15.73
2023-03-18T12:18:31.338Z,14.40
2023-03-18T12:21:45.759Z,14.55
2023-03-18T12:24:24.797Z,13.90
2023-03-18T12:30:00.793Z,15.15
2023-03-18T12:32:46.667Z,15.77
2023-03-18T12:35:54.682Z,14.98
2023-03-18T12:38:38.898Z,15.30
2023-03-18T12:41:26.029Z,14.52
2023-03-18T12:44:12.649Z,14.30
2023-03-18T12:46:54.778Z,15.35
2023-03-18T12:49:52.607Z,13.32
2023-03-18T12:52:32.525Z,13.82
2023-03-18T12:55:29.799Z,14.25
2023-03-18T12:58:08.066Z,14.82
2023-03-18T13:01:17.620Z,14.73
2023-03-18T13:03:54.536Z,14.55
2023-03-18T13:06:41.046Z,13.65
2023-03-18T13:09:49.207Z,15.60
2023-03-18T13:12:41.016Z,14.35
2023-03-18T13:15:29.804Z,14.45
2023-03-18T13:18:12.591Z,14.18
2023-03-18T13:20:44.952Z,13.10
2023-03-18T13:23:41.980Z,13.57
2023-03-18T13:26:40.704Z,14.15
2023-03-18T13:29:25.658Z,13.02
2023-03-18T13:32:33.951Z,14.00
2023-03-18T13:36:04.853Z,12.93
2023-03-18T13:38:51.030Z,13.18
2023-03-18T13:41:33.647Z,12.80
2023-03-18T13:44:15.432Z,12.70
2023-03-18T13:47:04.801Z,13.32
2023-03-18T13:49:39.505Z,12.27
2023-03-18T13:52:29.185Z,12.93
2023-03-18T13:55:33.652Z,12.88
2023-03-18T13:58:20.906Z,13.13
2023-03-18T14:01:25.338Z,13.45
2023-03-18T14:04:02.340Z,13.65
2023-03-18T14:09:34.257Z,13.75
2023-03-18T14:12:35.763Z,14.02
2023-03-18T14:15:13.921Z,14.23
2023-03-18T14:17:58.570Z,12.93
2023-03-18T14:20:43.545Z,14.48
2023-03-18T14:23:25.309Z,14.82
2023-03-18T14:26:09.348Z,13.10
2023-03-18T14:28:49.568Z,14.45
2023-03-18T14:31:32.919Z,14.30
2023-03-18T14:34:15.289Z,12.65
2023-03-18T14:37:15.558Z,12.35
2023-03-18T14:39:48.452Z,12.35
2023-03-18T14:42:24.421Z,11.90
2023-03-18T14:45:21.769Z,12.07
2023-03-18T14:47:56.438Z,12.00
2023-03-18T14:50:40.602Z,11.95
2023-03-18T14:53:23.160Z,13.20
2023-03-18T14:55:56.560Z,13.10
2023-03-18T14:58:28.957Z,13.32
2023-03-18T15:01:11.173Z,11.52
2023-03-18T15:03:45.281Z,11.30
2023-03-18T15:06:22.209Z,12.05
2023-03-18T15:09:05.238Z,12.10
2023-03-18T15:11:45.110Z,11.50
2023-03-18T15:14:30.427Z,11.57
2023-03-18T15:17:02.685Z,12.23
2023-03-18T15:19:33.713Z,11.88
2023-03-18T15:22:06.352Z,12.68
2023-03-18T15:24:37.036Z,13.48
2023-03-18T15:27:22.844Z,13.18
2023-03-18T15:29:57.883Z,12.88
2023-03-18T15:32:33.721Z,14.02
2023-03-18T15:35:21.154Z,12.80
2023-03-18T15:38:19.837Z,13.25
2023-03-18T15:40:53.991Z,14.52
2023-03-18T15:43:47.665Z,13.93
2023-03-18T15:46:17.552Z,12.25
2023-03-18T15:48:55.138Z,11.30
2023-03-18T15:51:40.960Z,12.88
2023-03-18T15:56:53.361Z,13.20
2023-03-18T15:59:35.396Z,13.40
2023-03-18T16:02:17.159Z,11.27
2023-03-18T16:04:51.558Z,11.48
2023-03-18T16:07:28.835Z,12.13
2023-03-18T16:10:00.639Z,12.02
2023-03-18T16:12:32.282Z,11.48
2023-03-18T16:15:07.239Z,11.57
2023-03-18T16:17:40.454Z,11.55
2023-03-18T16:22:50.234Z,11.35
2023-03-18T16:25:20.424Z,10.48
2023-03-18T16:27:52.604Z,10.27
2023-03-18T16:30:31.452Z,11.23
2023-03-18T16:33:01.303Z,11.05
2023-03-18T16:35:36.636Z,10.15
2023-03-18T16:38:08.457Z,10.52
2023-03-18T16:40:40.937Z,10.00
2023-03-18T16:43:22.773Z,10.82
2023-03-18T16:45:52.759Z,8.55
2023-03-18T16:48:24.634Z,8.85
2023-03-18T16:51:02.290Z,10.52
2023-03-18T16:53:34.830Z,9.65
2023-03-18T16:56:16.286Z,8.88
2023-03-18T16:58:49.350Z,9.20
2023-03-18T17:01:20.013Z,9.55
2023-03-18T17:03:50.232Z,7.90
2023-03-18T17:06:20.505Z,9.80
2023-03-18T17:08:50.534Z,8.68
2023-03-18T17:11:20.253Z,8.40
2023-03-18T17:13:52.942Z,8.77
2023-03-18T17:16:24.293Z,9.65
2023-03-18T17:18:56.716Z,9.18
2023-03-18T17:21:32.750Z,8.75
2023-03-18T17:24:03.834Z,9.27
2023-03-18T17:26:37.036Z,10.00
2023-03-18T17:29:24.317Z,8.18
2023-03-18T17:31:55.123Z,8.70
2023-03-18T17:34:25.082Z,9.90
2023-03-18T17:36:55.878Z,9.02
2023-03-18T17:39:25.685Z,8.68
2023-03-18T17:41:55.817Z,9.07
2023-03-18T17:44:30.050Z,9.73
2023-03-18T17:47:03.624Z,8.73
2023-03-18T17:49:37.377Z,8.77
2023-03-18T17:52:14.450Z,8.82
2023-03-18T17:54:45.278Z,9.15
2023-03-18T17:57:18.709Z,8.48
2023-03-18T17:59:49.101Z,8.10
2023-03-18T18:02:21.686Z,10.45
2023-03-18T18:04:56.825Z,9.38
2023-03-18T18:07:28.878Z,8.80
2023-03-18T18:10:01.635Z,9.70
2023-03-18T18:12:35.659Z,8.60
2023-03-18T18:15:07.870Z,9.00
2023-03-18T18:17:38.023Z,8.48
2023-03-18T18:20:16.016Z,7.95
2023-03-18T18:22:57.908Z,7.78
2023-03-18T18:25:33.606Z,8.90
2023-03-18T18:28:18.330Z,8.27
2023-03-18T18:30:51.609Z,7.93
2023-03-18T18:33:25.085Z,8.57
2023-03-18T18:35:59.027Z,7.80
2023-03-18T18:38:29.079Z,9.48
2023-03-18T18:41:00.527Z,8.38
2023-03-18T18:43:31.012Z,6.82
2023-03-18T18:46:01.794Z,6.57
2023-03-18T18:48:38.545Z,6.82
2023-03-18T18:51:18.264Z,6.55
2023-03-18T18:53:54.466Z,6.55
2023-03-18T18:56:34.749Z,6.65
2023-03-18T18:59:25.242Z,5.72
2023-03-18T19:01:56.200Z,5.07
2023-03-18T19:04:29.822Z,4.70
2023-03-18T19:07:02.429Z,4.55
2023-03-18T19:09:32.336Z,4.57
2023-03-18T19:12:05.246Z,4.63
2023-03-18T19:14:35.226Z,5.20
2023-03-18T19:17:05.956Z,4.78
2023-03-18T19:19:36.203Z,4.00
2023-03-18T19:22:09.504Z,4.45
2023-03-18T19:24:42.556Z,4.85
2023-03-18T19:27:15.407Z,5.07
2023-03-18T19:29:48.001Z,4.53
2023-03-18T19:32:25.674Z,5.68
2023-03-18T19:34:56.538Z,5.55
2023-03-18T19:37:33.065Z,5.57
2023-03-18T19:40:20.284Z,5.75
2023-03-18T19:42:50.547Z,5.63
2023-03-18T19:45:20.911Z,6.20
2023-03-18T19:47:52.950Z,6.78
2023-03-18T19:50:22.973Z,6.15
2023-03-18T19:52:56.997Z,6.72
2023-03-18T19:55:29.961Z,6.95
2023-03-18T19:58:00.142Z,6.55
2023-03-18T20:00:31.127Z,6.50
2023-03-18T20:03:01.925Z,6.22
2023-03-18T20:05:35.594Z,7.28
2023-03-18T20:08:05.363Z,7.70
2023-03-18T20:10:35.252Z,7.57
2023-03-18T20:13:05.109Z,7.13
2023-03-18T20:15:35.053Z,7.03
2023-03-18T20:18:13.857Z,6.75
2023-03-18T20:20:52.206Z,7.03
2023-03-18T20:23:25.896Z,6.95
2023-03-18T20:25:58.521Z,7.90
2023-03-18T20:28:32.111Z,7.38
2023-03-18T20:31:04.656Z,8.90
2023-03-18T20:33:34.228Z,8.38
2023-03-18T20:36:05.250Z,8.65
2023-03-18T20:38:38.014Z,8.15
2023-03-18T20:41:08.776Z,8.90
2023-03-18T20:43:41.101Z,8.40
2023-03-18T20:46:17.091Z,8.02
2023-03-18T20:48:46.857Z,8.35
2023-03-18T20:51:28.309Z,8.77
2023-03-18T20:53:58.691Z,8.90
2023-03-18T20:56:32.899Z,8.95
2023-03-18T20:59:04.733Z,9.25
2023-03-18T21:01:34.657Z,9.90
2023-03-18T21:04:05.218Z,10.25
2023-03-18T21:06:34.798Z,9.70
2023-03-18T21:09:05.342Z,8.63
2023-03-18T21:11:37.863Z,9.07
2023-03-18T21:14:07.513Z,7.53
2023-03-18T21:16:38.110Z,6.95
2023-03-18T21:19:11.114Z,7.53
2023-03-18T21:21:42.460Z,5.57
2023-03-18T21:24:20.638Z,5.68
2023-03-18T21:27:03.053Z,5.57
2023-03-18T21:29:34.441Z,4.78
2023-03-18T21:32:03.997Z,4.50
2023-03-18T21:34:35.852Z,4.55
2023-03-18T21:37:10.429Z,4.68
2023-03-18T21:39:42.541Z,4.55
2023-03-18T21:42:28.104Z,5.20
2023-03-18T21:44:57.936Z,4.82
2023-03-18T21:47:29.676Z,5.10
2023-03-18T21:49:59.349Z,6.18
2023-03-18T21:52:39.377Z,6.32
2023-03-18T21:55:13.084Z,7.53
2023-03-18T21:57:42.771Z,7.18
2023-03-18T22:00:19.578Z,8.63
2023-03-18T22:02:50.266Z,6.53
2023-03-18T22:05:25.040Z,8.63
2023-03-18T22:07:55.979Z,7.22
2023-03-18T22:10:25.125Z,9.73
2023-03-18T22:12:55.046Z,7.63
2023-03-18T22:15:24.309Z,8.73
2023-03-18T22:17:54.086Z,7.63
2023-03-18T22:20:23.819Z,7.43
2023-03-18T22:22:56.233Z,8.02
2023-03-18T22:25:26.635Z,7.68
2023-03-18T22:28:01.078Z,9.35
2023-03-18T22:30:34.755Z,8.77
2023-03-18T22:33:07.288Z,7.32
2023-03-18T22:35:37.596Z,7.70
2023-03-18T22:38:18.835Z,9.43
2023-03-18T22:40:53.009Z,8.45
2023-03-18T22:43:28.427Z,8.57
2023-03-18T22:46:01.950Z,8.68
2023-03-18T22:48:32.284Z,9.27
2023-03-18T22:51:02.329Z,7.20
2023-03-18T22:53:39.170Z,8.77
2023-03-18T22:56:18.646Z,8.65
2023-03-18T22:58:48.439Z,8.98
2023-03-18T23:01:21.101Z,7.82
2023-03-18T23:03:53.472Z,6.78
2023-03-18T23:06:27.592Z,7.70
2023-03-18T23:08:59.550Z,8.20
2023-03-18T23:11:30.952Z,6.72
2023-03-18T23:14:00.337Z,7.80
2023-03-18T23:16:29.962Z,7.32
2023-03-18T23:18:59.630Z,7.70
2023-03-18T23:21:28.799Z,7.53
2023-03-18T23:23:58.767Z,7.47
2023-03-18T23:26:28.384Z,7.07
2023-03-18T23:28:57.715Z,7.35
2023-03-18T23:31:27.730Z,6.65
2023-03-18T23:33:57.041Z,7.05
2023-03-18T23:36:26.776Z,7.03
2023-03-18T23:38:58.378Z,5.72
2023-03-18T23:41:31.125Z,15.55
2023-03-18T23:44:02.942Z,8.32
2023-03-18T23:46:32.061Z,6.72
2023-03-18T23:49:04.512Z,8.23
2023-03-18T23:51:34.229Z,6.72
2023-03-18T23:54:03.621Z,7.00
2023-03-18T23:56:33.544Z,6.40
2023-03-18T23:59:03.941Z,7.28
